Time;durP1;ratioP1;P1;durP2;ratioP2;P2;SDS_P1;SDS_P2;PMS_P1;PMS_P2;Temp;Humidity;BMP_temperature;BMP_pressure;BME280_temperature;BME280_humidity;BME280_pressure;Samples;Min_cycle;Max_cycle;Signal;HPM_P1;HPM_P2
2022/07/27 00:01:14;;;;;;;9.30;6.62;;;;;;;14.86;100.00;99598.89;1670982;85;21079;-67
2022/07/27 00:03:44;;;;;;;13.95;7.03;;;;;;;14.85;100.00;99601.14;1671153;85;21798;-67
2022/07/27 00:06:12;;;;;;;;;;;;;;;14.84;100.00;99595.48;1673329;85;21095;-69
2022/07/27 00:08:39;;;;;;;7.45;5.87;;;;;;;14.82;100.00;99598.70;1671070;85;20426;-68
2022/07/27 00:11:08;;;;;;;10.82;6.17;;;;;;;14.79;100.00;99592.72;1671274;85;21058;-68
2022/07/27 00:13:34;;;;;;;13.62;6.80;;;;;;;14.79;100.00;99600.23;1671355;85;21074;-68
2022/07/27 00:16:02;;;;;;;11.00;6.47;;;;;;;14.79;100.00;99598.02;1671055;85;21147;-68
2022/07/27 00:18:30;;;;;;;12.55;6.75;;;;;;;14.76;100.00;99603.05;1670914;85;21137;-68
2022/07/27 00:20:56;;;;;;;8.43;6.10;;;;;;;14.74;100.00;99605.42;1670965;85;21105;-67
2022/07/27 00:23:24;;;;;;;10.85;6.92;;;;;;;14.71;100.00;99601.64;1670922;85;21070;-68
2022/07/27 00:25:51;;;;;;;9.08;6.83;;;;;;;14.71;100.00;99602.97;1670857;85;21105;-68
2022/07/27 00:28:19;;;;;;;10.50;6.55;;;;;;;14.69;100.00;99601.73;1670850;85;21090;-68
2022/07/27 00:30:46;;;;;;;9.95;6.33;;;;;;;14.67;100.00;99603.63;1670745;85;21118;-69
2022/07/27 00:33:13;;;;;;;12.23;7.30;;;;;;;14.66;100.00;99599.28;1670956;85;21100;-68
2022/07/27 00:35:39;;;;;;;10.40;7.03;;;;;;;14.64;100.00;99603.83;1671008;85;21089;-70
2022/07/27 00:38:05;;;;;;;10.80;7.25;;;;;;;14.58;100.00;99593.11;1670624;85;21592;-68
2022/07/27 00:40:32;;;;;;;9.98;6.70;;;;;;;14.59;100.00;99601.94;1670409;85;22171;-68
2022/07/27 00:42:58;;;;;;;13.80;7.40;;;;;;;14.55;100.00;99598.61;1670575;85;21637;-67
2022/07/27 00:45:25;;;;;;;11.65;6.95;;;;;;;14.54;100.00;99607.52;1670616;85;21618;-67
2022/07/27 00:47:53;;;;;;;10.50;7.10;;;;;;;14.51;100.00;99604.16;1670523;85;21566;-67
2022/07/27 00:50:21;;;;;;;9.93;6.40;;;;;;;14.47;100.00;99607.02;1670707;85;21121;-67
2022/07/27 00:52:48;;;;;;;7.12;6.33;;;;;;;14.44;100.00;99604.53;1670684;85;21985;-67
2022/07/27 00:55:16;;;;;;;7.40;6.10;;;;;;;14.44;100.00;99607.66;1677028;85;21045;-67
2022/07/27 00:57:44;;;;;;;9.25;6.45;;;;;;;14.44;100.00;99601.88;1678375;85;21069;-68
2022/07/27 01:00:13;;;;;;;13.25;6.53;;;;;;;14.44;100.00;99605.86;1678126;84;21056;-67
2022/07/27 01:02:39;;;;;;;9.80;5.47;;;;;;;14.44;100.00;99604.53;1671223;85;21081;-67
2022/07/27 01:05:08;;;;;;;7.92;5.80;;;;;;;14.44;100.00;99606.34;1670822;85;21256;-68
2022/07/27 01:07:34;;;;;;;10.85;6.15;;;;;;;14.44;100.00;99597.91;1670657;84;21039;-67
2022/07/27 01:10:01;;;;;;;13.72;6.70;;;;;;;14.44;100.00;99599.23;1670818;85;21141;-68
2022/07/27 01:12:30;;;;;;;9.33;6.50;;;;;;;14.42;100.00;99593.66;1670621;85;21101;-67
2022/07/27 01:14:57;;;;;;;9.23;6.20;;;;;;;14.40;100.00;99592.45;1670893;85;21559;-67
2022/07/27 01:17:25;;;;;;;12.37;6.80;;;;;;;14.38;100.00;99583.73;1670698;85;21241;-67
2022/07/27 01:19:52;;;;;;;12.75;7.30;;;;;;;14.37;100.00;99587.80;1670775;85;21141;-69
2022/07/27 01:22:20;;;;;;;10.72;6.58;;;;;;;14.36;100.00;99586.11;1670827;85;21086;-68
2022/07/27 01:24:49;;;;;;;11.48;7.00;;;;;;;14.34;100.00;99586.67;1670963;85;21079;-68
2022/07/27 01:27:15;;;;;;;9.95;7.03;;;;;;;14.35;100.00;99585.23;1671044;85;21074;-68
2022/07/27 01:29:43;;;;;;;11.15;6.87;;;;;;;14.34;100.00;99587.52;1670948;85;21938;-67
2022/07/27 01:32:09;;;;;;;7.95;6.55;;;;;;;14.31;100.00;99590.36;1670678;85;21574;-68
2022/07/27 01:34:36;;;;;;;9.68;7.25;;;;;;;14.29;100.00;99592.25;1670981;85;21109;-68
2022/07/27 01:37:04;;;;;;;8.43;6.58;;;;;;;14.25;100.00;99590.24;1670712;85;21081;-68
2022/07/27 01:39:31;;;;;;;9.83;6.75;;;;;;;14.25;100.00;99596.02;1670774;85;21022;-68
2022/07/27 01:41:58;;;;;;;11.45;6.65;;;;;;;14.22;100.00;99591.77;1670757;85;21210;-68
2022/07/27 01:44:25;;;;;;;10.50;5.62;;;;;;;14.20;100.00;99592.80;1670672;85;21048;-69
2022/07/27 01:46:51;;;;;;;8.05;5.53;;;;;;;14.19;100.00;99592.41;1670501;85;21066;-69
2022/07/27 01:49:18;;;;;;;7.22;5.37;;;;;;;14.18;100.00;99590.23;1670951;85;21065;-68
2022/07/27 01:51:44;;;;;;;8.10;5.65;;;;;;;14.17;100.00;99591.64;1670581;85;21090;-68
2022/07/27 01:54:11;;;;;;;8.45;5.67;;;;;;;14.17;100.00;99592.97;1670798;85;21140;-67
2022/07/27 01:56:40;;;;;;;7.55;6.03;;;;;;;14.11;100.00;99594.20;1670719;85;21062;-66
2022/07/27 01:59:06;;;;;;;11.35;7.17;;;;;;;14.04;100.00;99593.72;1670948;85;21054;-68
2022/07/27 02:01:33;;;;;;;14.20;6.83;;;;;;;14.06;100.00;99589.19;1670898;84;21117;-67
2022/07/27 02:04:00;;;;;;;8.73;6.30;;;;;;;14.09;100.00;99592.12;1671090;85;21349;-67
2022/07/27 02:06:26;;;;;;;10.10;6.75;;;;;;;14.13;100.00;99596.77;1670976;85;21074;-67
2022/07/27 02:08:53;;;;;;;13.05;7.03;;;;;;;14.12;100.00;99599.02;1670601;85;21614;-67
2022/07/27 02:14:05;;;;;;;11.85;6.87;;;;;;;14.14;100.00;99598.46;1670918;85;21082;-67
2022/07/27 02:16:33;;;;;;;11.57;6.92;;;;;;;14.16;100.00;99592.60;1670785;85;21581;-67
2022/07/27 02:19:00;;;;;;;8.45;6.60;;;;;;;14.15;100.00;99598.83;1671014;85;21403;-67
2022/07/27 02:21:27;;;;;;;8.78;6.55;;;;;;;14.12;100.00;99601.19;1670705;85;21054;-68
2022/07/27 02:23:54;;;;;;;11.70;5.20;;;;;;;14.11;100.00;99593.36;1670803;85;21049;-68
2022/07/27 02:26:20;;;;;;;7.67;5.90;;;;;;;14.12;100.00;99600.34;1671001;85;21094;-68
2022/07/27 02:28:48;;;;;;;12.13;6.17;;;;;;;14.13;100.00;99594.12;1670817;85;21645;-67
2022/07/27 02:31:14;;;;;;;9.78;6.72;;;;;;;14.15;100.00;99597.05;1671112;85;21117;-68
2022/07/27 02:33:41;;;;;;;8.88;5.75;;;;;;;14.16;100.00;99596.58;1670842;85;21606;-67
2022/07/27 02:36:08;;;;;;;9.45;6.67;;;;;;;14.17;100.00;99604.89;1671082;85;21596;-68
2022/07/27 02:38:34;;;;;;;8.73;6.62;;;;;;;14.20;100.00;99600.75;1670733;85;21042;-67
2022/07/27 02:41:01;;;;;;;11.10;6.53;;;;;;;14.22;100.00;99598.86;1651130;85;21101;-67
2022/07/27 02:43:28;;;;;;;7.20;6.35;;;;;;;14.24;100.00;99604.44;1651225;85;21079;-68
2022/07/27 02:45:55;;;;;;;13.10;6.90;;;;;;;14.26;100.00;99606.98;1670804;85;21074;-67
2022/07/27 02:48:22;;;;;;;7.83;6.28;;;;;;;14.28;100.00;99606.42;1670753;85;21106;-67
2022/07/27 02:50:49;;;;;;;14.20;7.17;;;;;;;14.30;100.00;99601.88;1670737;85;21382;-69
2022/07/27 02:53:16;;;;;;;10.58;7.03;;;;;;;14.34;100.00;99603.41;1680765;84;21053;-67
2022/07/27 02:55:43;;;;;;;11.38;6.58;;;;;;;14.36;100.00;99606.81;1691738;84;21249;-68
2022/07/27 02:58:09;;;;;;;10.38;6.65;;;;;;;14.38;100.00;99596.98;1691329;84;21080;-67
2022/07/27 03:00:37;;;;;;;7.72;6.55;;;;;;;14.44;100.00;99602.36;1691267;83;21112;-68
2022/07/27 03:03:04;;;;;;;11.30;6.50;;;;;;;14.49;100.00;99613.52;1691222;84;21085;-67
2022/07/27 03:05:30;;;;;;;10.68;6.95;;;;;;;14.53;100.00;99607.58;1691014;84;21037;-68
2022/07/27 03:07:57;;;;;;;10.45;6.25;;;;;;;14.59;100.00;99615.19;1691175;84;21613;-67
2022/07/27 03:10:23;;;;;;;9.98;6.30;;;;;;;14.66;100.00;99608.56;1690833;84;21545;-67
2022/07/27 03:12:51;;;;;;;8.05;5.97;;;;;;;14.76;100.00;99617.63;1691080;84;21056;-67
2022/07/27 03:15:18;;;;;;;7.60;6.10;;;;;;;14.88;100.00;99616.88;1691103;84;21050;-70
2022/07/27 03:17:46;;;;;;;9.50;6.83;;;;;;;15.01;100.00;99616.09;1690975;84;21144;-69
2022/07/27 03:20:13;;;;;;;8.33;5.87;;;;;;;15.14;100.00;99610.39;1691014;84;21963;-67
2022/07/27 03:22:41;;;;;;;7.47;5.65;;;;;;;15.28;100.00;99606.36;1690844;84;21112;-68
2022/07/27 03:25:09;;;;;;;8.65;6.35;;;;;;;15.44;100.00;99610.68;1691042;84;21532;-68
2022/07/27 03:27:35;;;;;;;15.13;6.47;;;;;;;15.59;100.00;99613.63;1690959;84;21133;-67
2022/07/27 03:30:05;;;;;;;9.88;5.45;;;;;;;15.76;100.00;99613.02;1690928;84;21105;-67
2022/07/27 03:32:32;;;;;;;7.40;5.70;;;;;;;15.95;100.00;99608.19;1690921;84;21213;-68
2022/07/27 03:34:58;;;;;;;8.85;5.42;;;;;;;16.12;100.00;99617.17;1691150;84;21053;-67
2022/07/27 03:37:25;;;;;;;11.93;6.20;;;;;;;16.30;100.00;99615.55;1690919;84;21049;-68
2022/07/27 03:39:52;;;;;;;9.45;5.60;;;;;;;16.53;100.00;99620.60;1691000;84;21078;-68
2022/07/27 03:42:18;;;;;;;13.15;5.60;;;;;;;16.96;100.00;99625.10;1690986;84;21105;-68
2022/07/27 03:44:46;;;;;;;9.08;5.30;;;;;;;17.61;100.00;99621.73;1691188;84;21224;-68
2022/07/27 03:47:13;;;;;;;10.28;4.78;;;;;;;18.27;100.00;99619.91;1691233;84;21057;-67
2022/07/27 03:49:40;;;;;;;6.40;4.85;;;;;;;18.87;100.00;99618.78;1691758;84;21072;-68
2022/07/27 03:52:07;;;;;;;7.60;4.58;;;;;;;19.26;100.00;99616.55;1690886;84;21018;-68
2022/07/27 03:54:33;;;;;;;8.68;5.30;;;;;;;19.72;100.00;99618.14;1691278;84;21119;-69
2022/07/27 03:57:01;;;;;;;8.90;5.67;;;;;;;20.15;100.00;99617.17;1691631;84;21203;-69
2022/07/27 03:59:27;;;;;;;7.55;5.17;;;;;;;20.25;98.54;99620.77;1691474;84;21104;-68
2022/07/27 04:01:54;;;;;;;9.40;5.28;;;;;;;20.15;97.95;99621.68;1691648;84;21526;-68
2022/07/27 04:04:22;;;;;;;13.13;5.25;;;;;;;20.10;97.37;99618.06;1691633;84;21072;-68
2022/07/27 04:06:50;;;;;;;9.20;5.17;;;;;;;20.12;97.33;99617.45;1691489;83;22139;-69
2022/07/27 04:09:18;;;;;;;10.45;4.70;;;;;;;20.25;97.01;99616.77;1691521;84;21052;-68
2022/07/27 04:11:46;;;;;;;8.08;4.95;;;;;;;20.63;95.76;99627.34;1691293;84;21072;-68
2022/07/27 04:14:13;;;;;;;9.28;5.12;;;;;;;21.20;92.94;99622.34;1691599;84;21063;-70
2022/07/27 04:16:40;;;;;;;14.03;5.40;;;;;;;21.67;90.32;99619.05;1691490;84;21088;-67
2022/07/27 04:19:06;;;;;;;10.10;5.35;;;;;;;22.10;88.35;99620.45;1691891;84;21063;-69
2022/07/27 04:21:35;;;;;;;10.50;5.03;;;;;;;22.51;86.74;99613.06;1691474;84;21175;-68
2022/07/27 04:24:02;;;;;;;10.82;4.65;;;;;;;22.99;84.44;99614.73;1691596;84;21128;-69
2022/07/27 04:26:28;;;;;;;10.10;5.53;;;;;;;23.41;82.60;99609.66;1691442;84;21505;-67
2022/07/27 04:28:55;;;;;;;9.88;4.90;;;;;;;23.84;80.59;99612.64;1691503;84;21059;-68
2022/07/27 04:31:22;;;;;;;6.25;4.60;;;;;;;24.30;79.11;99616.02;1691484;84;21059;-68
2022/07/27 04:33:50;;;;;;;8.23;4.50;;;;;;;24.73;77.44;99616.95;1691788;84;21170;-68
2022/07/27 04:36:18;;;;;;;12.63;5.75;;;;;;;25.13;75.40;99612.77;1691407;84;21055;-69
2022/07/27 04:38:46;;;;;;;14.68;5.22;;;;;;;25.49;72.06;99613.89;1691613;84;21032;-69
2022/07/27 04:41:14;;;;;;;8.08;4.70;;;;;;;25.79;71.59;99618.31;1691474;84;21040;-67
2022/07/27 04:43:41;;;;;;;10.75;5.20;;;;;;;26.10;69.17;99612.63;1691631;84;21103;-68
2022/07/27 04:46:08;;;;;;;8.08;4.72;;;;;;;26.44;67.08;99603.48;1691363;84;21233;-68
2022/07/27 04:48:34;;;;;;;5.92;4.00;;;;;;;26.83;66.23;99610.83;1691437;84;21056;-68
2022/07/27 04:51:04;;;;;;;5.70;4.03;;;;;;;27.26;62.63;99607.27;1691135;84;21038;-68
2022/07/27 04:53:31;;;;;;;6.60;3.90;;;;;;;27.60;60.97;99608.75;1691407;84;21001;-68
2022/07/27 04:55:57;;;;;;;7.12;3.98;;;;;;;27.91;60.06;99605.19;1690903;84;21101;-67
2022/07/27 04:58:27;;;;;;;6.28;3.85;;;;;;;28.21;58.67;99605.58;1691062;84;22082;-68
2022/07/27 05:00:53;;;;;;;5.05;3.67;;;;;;;28.44;57.17;99600.62;1691214;84;21081;-68
2022/07/27 05:03:20;;;;;;;8.53;3.67;;;;;;;28.70;56.41;99606.13;1691014;84;21600;-68
2022/07/27 05:05:46;;;;;;;3.85;3.00;;;;;;;29.09;56.29;99603.66;1691010;84;21578;-68
2022/07/27 05:08:14;;;;;;;4.60;2.75;;;;;;;29.48;54.36;99614.95;1691140;84;21065;-68
2022/07/27 05:10:41;;;;;;;4.20;2.65;;;;;;;29.79;52.47;99611.11;1690986;84;21822;-68
2022/07/27 05:13:07;;;;;;;3.75;2.60;;;;;;;30.19;44.93;99611.48;1690682;84;21061;-68
2022/07/27 05:15:34;;;;;;;5.35;2.98;;;;;;;30.59;42.51;99611.78;1690948;84;21596;-68
2022/07/27 05:18:00;;;;;;;4.60;2.87;;;;;;;30.85;40.85;99615.22;1690992;84;21653;-68
2022/07/27 05:20:27;;;;;;;4.10;2.47;;;;;;;30.99;40.47;99609.33;1690794;84;21108;-67
2022/07/27 05:22:54;;;;;;;6.97;2.77;;;;;;;31.13;39.81;99606.97;1690653;84;21582;-69
2022/07/27 05:25:24;;;;;;;5.90;2.70;;;;;;;31.20;39.18;99612.94;1690901;84;21120;-68
2022/07/27 05:27:52;;;;;;;4.37;2.30;;;;;;;31.28;39.27;99611.41;1691311;84;21014;-69
2022/07/27 05:30:20;;;;;;;3.02;2.65;;;;;;;31.34;38.58;99608.71;1690958;84;21132;-69
2022/07/27 05:32:46;;;;;;;7.20;2.80;;;;;;;31.46;38.29;99606.80;1690891;84;21101;-69
2022/07/27 05:35:14;;;;;;;6.10;2.42;;;;;;;31.62;38.19;99611.02;1690956;84;21622;-68
2022/07/27 05:37:40;;;;;;;3.75;2.60;;;;;;;31.83;37.92;99613.55;1691207;84;20990;-70
2022/07/27 05:40:09;;;;;;;7.15;2.67;;;;;;;31.88;37.47;99616.48;1690814;84;21565;-70
2022/07/27 05:42:36;;;;;;;4.50;2.70;;;;;;;31.88;37.47;99616.48;1690975;84;21295;-68
2022/07/27 05:45:03;;;;;;;6.25;3.10;;;;;;;31.78;37.27;99618.78;1690888;84;21554;-69
2022/07/27 05:47:30;;;;;;;4.45;2.92;;;;;;;31.70;37.45;99617.61;1691152;84;21505;-69
2022/07/27 05:49:57;;;;;;;5.05;3.25;;;;;;;31.56;37.80;99620.83;1690999;84;21044;-69
2022/07/27 05:52:23;;;;;;;7.45;2.92;;;;;;;31.52;38.02;99616.34;1690768;84;21065;-69
2022/07/27 05:54:50;;;;;;;3.42;2.80;;;;;;;31.53;37.64;99616.64;1677715;84;21097;-68
2022/07/27 05:57:16;;;;;;;3.72;2.92;;;;;;;31.61;37.61;99617.48;1671541;85;21076;-70
2022/07/27 05:59:43;;;;;;;8.05;3.40;;;;;;;31.74;37.64;99620.23;1671930;85;21225;-70
2022/07/27 06:02:10;;;;;;;6.45;3.55;;;;;;;31.84;37.03;99617.97;1671540;85;21051;-68
2022/07/27 06:04:38;;;;;;;6.85;3.30;;;;;;;31.84;36.86;99619.33;1671898;84;21060;-68
2022/07/27 06:09:52;;;;;;;4.15;3.33;;;;;;;31.80;36.85;99619.42;1671992;85;21106;-69
2022/07/27 06:12:20;;;;;;;9.70;2.80;;;;;;;31.80;36.51;99624.03;1671588;85;21622;-69
2022/07/27 06:14:48;;;;;;;6.08;2.72;;;;;;;31.96;35.94;99625.02;1671734;84;21055;-69
2022/07/27 06:17:15;;;;;;;7.03;2.58;;;;;;;32.02;35.60;99617.89;1671641;84;21111;-69
2022/07/27 06:19:42;;;;;;;6.55;2.60;;;;;;;31.91;35.08;99618.81;1671879;84;21140;-70
2022/07/27 06:22:09;;;;;;;5.75;3.45;;;;;;;31.79;35.17;99627.25;1671574;85;21065;-69
2022/07/27 06:24:35;;;;;;;4.97;3.40;;;;;;;31.73;35.75;99624.86;1671771;84;21193;-69
2022/07/27 06:27:02;;;;;;;6.75;2.77;;;;;;;31.79;35.96;99625.89;1671796;85;21099;-70
2022/07/27 06:29:29;;;;;;;8.43;3.15;;;;;;;31.83;35.61;99627.16;1671979;85;21012;-69
2022/07/27 06:31:56;;;;;;;4.40;2.20;;;;;;;31.73;35.95;99628.11;1671675;85;21035;-69
2022/07/27 06:34:22;;;;;;;2.77;2.10;;;;;;;31.54;35.73;99626.50;1672005;85;21120;-70
2022/07/27 06:36:51;;;;;;;5.12;1.95;;;;;;;31.66;35.16;99629.98;1671870;85;21394;-69
2022/07/27 06:39:19;;;;;;;3.52;1.57;;;;;;;32.02;34.54;99632.87;1671886;85;21067;-70
2022/07/27 06:41:46;;;;;;;3.87;1.80;;;;;;;31.98;32.02;99634.66;1671616;84;21131;-70
2022/07/27 06:44:13;;;;;;;2.55;2.22;;;;;;;31.86;32.68;99629.45;1671718;85;21100;-70
2022/07/27 06:46:40;;;;;;;2.95;2.00;;;;;;;31.69;33.08;99626.30;1671760;85;21032;-70
2022/07/27 06:49:07;;;;;;;5.03;1.90;;;;;;;31.44;33.84;99628.75;1671748;85;21591;-71
2022/07/27 06:51:35;;;;;;;6.67;1.87;;;;;;;31.51;32.87;99632.86;1671654;85;21584;-69
2022/07/27 06:54:01;;;;;;;6.78;2.08;;;;;;;31.49;33.60;99630.86;1673958;85;21102;-69
2022/07/27 06:56:28;;;;;;;24.90;3.02;;;;;;;31.56;33.38;99627.13;1671962;85;21090;-69
2022/07/27 06:58:55;;;;;;;3.33;1.72;;;;;;;31.68;33.42;99631.95;1670956;85;22100;-68
2022/07/27 07:01:22;;;;;;;3.22;1.80;;;;;;;31.74;32.72;99631.12;1670854;85;22182;-70
2022/07/27 07:03:49;;;;;;;4.75;1.80;;;;;;;31.99;32.56;99628.68;1670753;85;21062;-68
2022/07/27 07:08:37;;;;;;;3.87;2.27;;;;;;;32.36;31.58;99623.64;1796655;79;22713;-69
2022/07/27 07:11:04;;;;;;;6.53;2.40;;;;;;;32.24;31.82;99620.72;1756391;81;21040;-70
2022/07/27 07:13:31;;;;;;;3.42;2.20;;;;;;;32.49;31.82;99620.08;1756296;81;21517;-68
2022/07/27 07:15:59;;;;;;;4.53;2.00;;;;;;;32.78;31.67;99622.36;1756295;81;21037;-69
2022/07/27 07:18:28;;;;;;;11.93;2.92;;;;;;;33.02;30.92;99625.42;1756413;81;20966;-69
2022/07/27 07:20:54;;;;;;;3.08;2.00;;;;;;;32.92;31.14;99626.38;1756565;81;21514;-70
2022/07/27 07:23:21;;;;;;;6.33;2.27;;;;;;;32.86;30.19;99623.17;1756376;81;21613;-69
2022/07/27 07:25:47;;;;;;;2.95;2.05;;;;;;;33.03;30.53;99625.72;1756411;81;21221;-68
2022/07/27 07:28:14;;;;;;;3.33;1.80;;;;;;;33.21;30.47;99623.16;1756345;81;21088;-69
2022/07/27 07:30:40;;;;;;;2.67;2.02;;;;;;;33.67;29.18;99624.52;1756347;81;21062;-68
2022/07/27 07:33:07;;;;;;;5.42;2.05;;;;;;;33.88;29.33;99626.05;1756112;81;21096;-70
2022/07/27 07:35:34;;;;;;;5.00;1.87;;;;;;;34.12;28.54;99623.05;1756770;81;21025;-69
2022/07/27 07:38:00;;;;;;;3.30;1.77;;;;;;;34.03;28.20;99626.05;1756410;81;21061;-68
2022/07/27 07:40:27;;;;;;;1.67;1.55;;;;;;;33.85;28.86;99622.70;1756323;81;21530;-70
2022/07/27 07:43:02;;;;;;;2.62;1.55;;;;;;;33.61;28.76;99622.98;1756299;81;21517;-69
2022/07/27 07:45:32;;;;;;;3.25;1.82;;;;;;;33.46;28.42;99623.77;1756584;81;21072;-69
2022/07/27 07:47:59;;;;;;;4.28;1.90;;;;;;;33.62;28.57;99617.83;1756125;81;21022;-70
2022/07/27 07:50:25;;;;;;;1.95;1.70;;;;;;;33.89;27.94;99627.21;1756720;81;21349;-68
2022/07/27 07:52:52;;;;;;;3.62;1.57;;;;;;;33.76;28.06;99625.93;1756582;81;21037;-68
2022/07/27 07:55:21;;;;;;;3.27;1.55;;;;;;;33.31;28.65;99620.48;1756370;81;21146;-70
2022/07/27 07:57:48;;;;;;;5.10;1.87;;;;;;;32.95;28.73;99621.88;1756454;81;21070;-69
2022/07/27 08:00:16;;;;;;;3.90;1.90;;;;;;;32.79;29.41;99622.66;1756472;81;21007;-69
2022/07/27 08:02:48;;;;;;;2.15;1.92;;;;;;;32.61;28.72;99621.13;1756231;81;21640;-69
2022/07/27 08:05:16;;;;;;;2.12;1.70;;;;;;;32.32;29.81;99629.20;1740727;81;21035;-69
2022/07/27 08:07:44;;;;;;;4.97;2.90;;;;;;;32.12;29.90;99627.86;1700399;82;21084;-69
2022/07/27 08:10:12;;;;;;;5.37;2.40;;;;;;;32.08;30.83;99626.59;1692546;84;21112;-71
2022/07/27 08:12:41;;;;;;;6.15;2.60;;;;;;;32.06;30.95;99633.60;1658960;86;21635;-69
2022/07/27 08:15:08;;;;;;;4.80;2.40;;;;;;;31.82;30.91;99632.80;1692535;84;21192;-72
2022/07/27 08:17:36;;;;;;;11.18;2.80;;;;;;;31.63;30.70;99638.53;1692195;84;21100;-69
2022/07/27 08:20:05;;;;;;;5.65;2.33;;;;;;;31.72;31.17;99634.58;1691880;84;21116;-69
2022/07/27 08:22:32;;;;;;;7.55;2.15;;;;;;;32.06;30.65;99633.60;1658237;86;21117;-70
2022/07/27 08:24:58;;;;;;;4.65;2.30;;;;;;;32.63;29.93;99627.20;1691869;84;21181;-70
2022/07/27 08:27:26;;;;;;;3.47;2.30;;;;;;;33.00;29.38;99623.42;1658086;86;21065;-69
2022/07/27 08:29:53;;;;;;;4.90;2.25;;;;;;;33.36;28.93;99621.52;1658209;86;21132;-68
2022/07/27 08:32:20;;;;;;;4.20;2.22;;;;;;;33.60;28.47;99622.66;1691879;84;21073;-69
2022/07/27 08:34:47;;;;;;;6.60;2.30;;;;;;;33.85;27.92;99621.88;1692176;84;21018;-69
2022/07/27 08:37:13;;;;;;;7.55;2.60;;;;;;;34.10;27.90;99623.30;1658170;86;21068;-70
2022/07/27 08:39:40;;;;;;;3.92;2.12;;;;;;;34.22;27.73;99620.66;1658140;86;21152;-68
2022/07/27 08:42:08;;;;;;;8.48;2.60;;;;;;;34.31;27.75;99620.69;1691764;84;21471;-69
2022/07/27 08:44:38;;;;;;;7.20;2.90;;;;;;;34.23;27.83;99620.96;1692084;84;21101;-70
2022/07/27 08:47:05;;;;;;;5.58;2.22;;;;;;;33.76;28.01;99618.57;1691847;84;21116;-69
2022/07/27 08:49:33;;;;;;;2.50;2.25;;;;;;;33.42;28.61;99619.80;1692024;84;21568;-69
2022/07/27 08:52:01;;;;;;;4.40;2.40;;;;;;;33.15;28.40;99619.09;1658108;86;21151;-70
2022/07/27 08:54:27;;;;;;;5.60;1.98;;;;;;;33.06;28.41;99617.16;1691647;84;21056;-70
2022/07/27 08:56:54;;;;;;;5.83;2.30;;;;;;;33.10;28.19;99615.64;1691797;84;21057;-70
2022/07/27 08:59:21;;;;;;;4.70;2.20;;;;;;;33.20;28.52;99622.86;1691797;84;21673;-68
2022/07/27 09:01:47;;;;;;;4.00;2.30;;;;;;;33.04;28.10;99613.77;1691850;84;21093;-70
2022/07/27 09:04:14;;;;;;;2.85;1.95;;;;;;;33.00;28.42;99612.52;1691814;84;21179;-69
2022/07/27 09:06:50;;;;;;;3.90;2.12;;;;;;;33.23;28.15;99611.50;1658279;86;21113;-69
2022/07/27 09:09:19;;;;;;;3.27;1.95;;;;;;;33.55;28.61;99615.63;1696675;84;21062;-68
2022/07/27 09:12:06;;;;;;;2.92;1.95;;;;;;;33.64;27.83;99610.25;1663085;86;21056;-69
2022/07/27 09:14:35;;;;;;;13.40;3.10;;;;;;;33.54;28.21;99611.21;1662043;86;21097;-69
2022/07/27 09:17:23;;;;;;;4.00;2.30;;;;;;;33.28;27.42;99614.11;1662904;86;21591;-69
2022/07/27 09:20:04;;;;;;;8.85;2.58;;;;;;;32.81;27.90;99611.02;1662907;86;21064;-69
2022/07/27 09:22:52;;;;;;;8.98;2.65;;;;;;;32.47;28.67;99615.36;1662886;86;21088;-69
2022/07/27 09:25:29;;;;;;;4.20;2.42;;;;;;;32.18;29.20;99612.02;1663285;86;21068;-69
2022/07/27 09:27:57;;;;;;;4.28;2.55;;;;;;;31.81;29.21;99614.81;1663180;86;21427;-69
2022/07/27 09:30:24;;;;;;;5.28;2.30;;;;;;;31.86;29.82;99614.48;1663287;86;22082;-68
2022/07/27 09:33:03;;;;;;;3.92;2.37;;;;;;;32.06;29.09;99609.63;1662903;86;22295;-68
2022/07/27 09:35:34;;;;;;;5.58;2.40;;;;;;;32.38;28.93;99606.03;1663420;86;21017;-69
2022/07/27 09:38:23;;;;;;;4.58;2.50;;;;;;;32.79;28.84;99604.93;1662841;86;21071;-69
2022/07/27 09:41:01;;;;;;;3.70;2.37;;;;;;;33.05;28.45;99613.27;1673031;83;21091;-70
2022/07/27 09:43:30;;;;;;;6.37;2.58;;;;;;;33.03;28.92;99607.98;1690830;84;21308;-70
2022/07/27 09:46:05;;;;;;;4.95;2.27;;;;;;;33.21;29.37;99608.68;1691210;84;21033;-70
2022/07/27 09:48:34;;;;;;;5.67;2.37;;;;;;;33.59;28.47;99609.22;1690975;84;21120;-69
2022/07/27 09:51:04;;;;;;;4.83;2.50;;;;;;;33.97;28.17;99610.53;1691005;84;20997;-70
2022/07/27 09:53:33;;;;;;;4.67;2.55;;;;;;;34.35;28.64;99606.89;1691051;84;21068;-69
2022/07/27 09:56:05;;;;;;;3.58;2.42;;;;;;;34.65;27.75;99610.30;1691231;84;21090;-70
2022/07/27 09:58:52;;;;;;;4.20;2.35;;;;;;;34.83;27.53;99613.04;1690678;84;21684;-69
2022/07/27 10:01:22;;;;;;;4.42;2.22;;;;;;;35.05;26.59;99609.83;1691188;84;21625;-70
2022/07/27 10:03:53;;;;;;;3.60;2.40;;;;;;;35.20;25.97;99616.28;1691133;84;28229;-71
2022/07/27 10:06:21;;;;;;;6.30;2.20;;;;;;;35.30;26.13;99617.41;1690766;84;21080;-68
2022/07/27 10:08:49;;;;;;;5.58;2.45;;;;;;;35.38;25.67;99615.42;1683053;84;21796;-71
2022/07/27 10:11:16;;;;;;;5.35;1.82;;;;;;;35.40;25.63;99614.66;1678422;85;21109;-70
2022/07/27 10:13:44;;;;;;;5.45;2.70;;;;;;;35.41;25.55;99619.08;1678416;85;21018;-69
2022/07/27 10:16:28;;;;;;;4.33;2.25;;;;;;;35.25;25.13;99615.91;1678175;85;21678;-69
2022/07/27 10:19:06;;;;;;;11.90;2.40;;;;;;;35.17;25.08;99617.58;1712771;83;21564;-71
2022/07/27 10:21:36;;;;;;;4.87;1.92;;;;;;;35.09;25.51;99621.98;1712928;83;21102;-69
2022/07/27 10:24:07;;;;;;;4.97;2.35;;;;;;;34.91;25.27;99624.73;1712613;83;21118;-70
2022/07/27 10:26:38;;;;;;;4.90;2.37;;;;;;;34.58;25.41;99617.67;1713171;83;21516;-69
2022/07/27 10:29:19;;;;;;;3.35;2.00;;;;;;;34.21;26.01;99620.34;1712772;82;21395;-69
2022/07/27 10:31:59;;;;;;;5.15;2.40;;;;;;;33.91;26.36;99618.23;1713423;83;21047;-68
2022/07/27 10:34:39;;;;;;;12.28;4.90;;;;;;;33.83;27.03;99618.53;1713302;82;21241;-70
2022/07/27 10:37:19;;;;;;;8.93;2.58;;;;;;;33.59;27.82;99614.18;1713037;83;21046;-70
2022/07/27 10:42:43;;;;;;;6.87;2.50;;;;;;;33.99;27.15;99611.69;1713093;83;21047;-68
2022/07/27 10:45:14;;;;;;;6.00;2.25;;;;;;;34.50;25.76;99613.34;1712980;83;21036;-70
2022/07/27 10:47:51;;;;;;;2.85;2.08;;;;;;;34.98;25.44;99606.34;1713076;82;21164;-69
2022/07/27 10:50:22;;;;;;;2.62;1.95;;;;;;;35.71;25.12;99606.77;1712827;83;21055;-71
2022/07/27 10:53:06;;;;;;;4.25;2.05;;;;;;;36.20;24.10;99603.35;1713550;83;21414;-70
2022/07/27 10:55:41;;;;;;;3.22;2.00;;;;;;;36.08;24.20;99602.48;1712915;83;21097;-70
2022/07/27 10:58:14;;;;;;;5.35;2.20;;;;;;;35.52;24.45;99616.89;1678699;85;21057;-70
2022/07/27 11:00:55;;;;;;;5.03;2.37;;;;;;;34.92;25.27;99607.25;1678503;85;21136;-69
2022/07/27 11:03:31;;;;;;;4.80;2.05;;;;;;;34.54;26.28;99614.58;1678338;85;21202;-69
2022/07/27 11:06:01;;;;;;;4.90;2.00;;;;;;;34.16;26.10;99607.89;1713167;83;21574;-70
2022/07/27 11:08:31;;;;;;;5.33;2.40;;;;;;;33.97;26.76;99614.63;1712997;82;21569;-69
2022/07/27 11:10:59;;;;;;;3.70;2.25;;;;;;;34.00;27.13;99614.17;1712509;82;21057;-70
2022/07/27 11:13:27;;;;;;;4.55;2.15;;;;;;;33.73;26.99;99612.70;1713269;82;21736;-70
2022/07/27 11:16:05;;;;;;;5.87;2.20;;;;;;;33.61;26.92;99613.44;1713058;82;21055;-69
2022/07/27 11:18:36;;;;;;;4.85;2.30;;;;;;;33.80;27.34;99608.05;1678201;85;21057;-69
2022/07/27 11:21:29;;;;;;;4.90;2.40;;;;;;;33.78;27.61;99615.62;1677690;85;21143;-69
2022/07/27 11:24:01;;;;;;;3.42;2.42;;;;;;;33.67;27.93;99609.51;1712964;83;21069;-69
2022/07/27 11:26:32;;;;;;;2.72;1.90;;;;;;;33.43;28.41;99607.84;1678419;85;21996;-69
2022/07/27 11:28:59;;;;;;;2.42;2.22;;;;;;;33.46;27.48;99603.30;1712657;82;21057;-69
2022/07/27 11:31:25;;;;;;;3.72;2.17;;;;;;;33.53;27.04;99602.73;1712924;82;21574;-69
2022/07/27 11:33:56;;;;;;;2.67;1.77;;;;;;;33.57;26.77;99602.64;1678607;85;21117;-71
2022/07/27 11:36:45;;;;;;;2.77;1.92;;;;;;;33.53;28.00;99610.92;1678410;85;21073;-72
2022/07/27 11:39:16;;;;;;;4.37;2.10;;;;;;;33.31;27.78;99604.11;1712856;83;21924;-69
2022/07/27 11:41:43;;;;;;;6.53;2.60;;;;;;;33.12;28.24;99603.99;1713035;83;21525;-70
2022/07/27 11:44:13;;;;;;;5.75;2.58;;;;;;;33.11;28.03;99606.95;1712687;83;21542;-71
2022/07/27 11:46:42;;;;;;;4.65;2.58;;;;;;;33.01;28.35;99601.91;1713142;83;21053;-70